• 1
  • 2
  • 1

 

 

 
NEU! ab. 1.4.
Nortel Info 128,740 MHz

WebCam

  
Kamera Halle
Kamera Vorfeld
Wetter EDDS

METAR

EDDS 200650Z 36001KT 1800 BR FEW043 07/07 Q1027 TEMPO 1200 =
AMD EDDS 200509Z 2005/2024 VRB03KT 3000 BR BKN040 PROB30 TEMPO 2005/2009 1200 BCFG BKN003 BECMG 2007/2010 7000


TAF

AMD EDDS 200509Z 2005/2024 VRB03KT 3000 BR BKN040 PROB30 TEMPO 2005/2009 1200 BCFG BKN003 BECMG 2007/2010 7000 =


SR/SS

05:48 / 16:23 UTC
(EDSO 20-10-2018)